createdAt,value
2022-10-20T00:01:27.023Z,7.10
2022-10-20T00:07:28.835Z,7.10
2022-10-20T00:13:31.005Z,7.10
2022-10-20T00:19:33.057Z,7.30
2022-10-20T00:25:34.940Z,7.30
2022-10-20T00:31:36.788Z,7.40
2022-10-20T00:37:38.628Z,7.40
2022-10-20T00:43:56.287Z,7.50
2022-10-20T00:50:07.870Z,7.50
2022-10-20T00:56:15.129Z,7.60
2022-10-20T01:02:17.509Z,7.50
2022-10-20T01:08:19.894Z,7.50
2022-10-20T01:14:30.357Z,7.40
2022-10-20T01:20:42.955Z,7.50
2022-10-20T01:27:18.644Z,7.40
2022-10-20T01:33:52.641Z,7.40
2022-10-20T01:40:01.695Z,7.30
2022-10-20T01:46:05.472Z,7.30
2022-10-20T01:52:08.798Z,7.20
2022-10-20T01:58:28.923Z,7.10
2022-10-20T02:04:47.022Z,7.10
2022-10-20T02:10:52.871Z,7.00
2022-10-20T02:16:59.536Z,6.90
2022-10-20T02:23:05.071Z,6.90
2022-10-20T02:29:17.516Z,6.80
2022-10-20T02:35:23.697Z,6.70
2022-10-20T02:41:28.980Z,6.80
2022-10-20T02:47:32.034Z,6.70
2022-10-20T02:53:38.613Z,6.80
2022-10-20T02:59:40.867Z,6.80
2022-10-20T03:05:44.722Z,6.70
2022-10-20T03:11:46.784Z,6.70
2022-10-20T03:17:48.879Z,6.70
2022-10-20T03:23:50.975Z,6.70
2022-10-20T03:29:53.157Z,6.60
2022-10-20T03:35:56.646Z,6.50
2022-10-20T03:42:00.639Z,6.40
2022-10-20T03:48:02.842Z,6.30
2022-10-20T03:54:04.808Z,6.20
2022-10-20T04:00:07.273Z,6.20
2022-10-20T04:06:14.483Z,6.10
2022-10-20T04:12:16.573Z,6.00
2022-10-20T04:18:18.507Z,6.10
2022-10-20T04:24:20.924Z,6.30
2022-10-20T04:30:27.383Z,6.40
2022-10-20T04:36:38.595Z,6.50
2022-10-20T04:42:45.578Z,6.40
2022-10-20T04:49:12.647Z,6.50
2022-10-20T04:55:14.964Z,6.50
2022-10-20T05:01:17.776Z,6.50
2022-10-20T05:07:20.004Z,6.30
2022-10-20T05:13:55.497Z,6.20
2022-10-20T05:20:25.749Z,6.20
2022-10-20T05:26:30.223Z,6.10
2022-10-20T05:32:33.127Z,6.20
2022-10-20T05:38:41.922Z,6.10
2022-10-20T05:44:44.665Z,6.10
2022-10-20T05:50:47.152Z,6.10
2022-10-20T05:56:51.681Z,6.00
2022-10-20T06:02:54.737Z,5.90
2022-10-20T06:09:01.752Z,6.00
2022-10-20T06:15:04.774Z,6.00
2022-10-20T06:21:34.678Z,6.00
2022-10-20T06:28:04.891Z,6.10
2022-10-20T06:34:53.333Z,6.20
2022-10-20T06:41:08.805Z,6.20
2022-10-20T06:47:30.956Z,6.20
2022-10-20T06:53:35.215Z,6.30
2022-10-20T06:59:38.741Z,6.40
2022-10-20T07:05:40.625Z,6.60
2022-10-20T07:11:43.167Z,6.80
2022-10-20T07:17:45.019Z,7.10
2022-10-20T07:23:48.967Z,7.40
2022-10-20T07:29:50.833Z,7.60
2022-10-20T07:35:52.761Z,7.70
2022-10-20T07:41:54.906Z,7.70
2022-10-20T07:47:56.759Z,7.80
2022-10-20T07:54:07.267Z,7.90
2022-10-20T08:00:09.881Z,8.10
2022-10-20T08:06:13.822Z,8.10
2022-10-20T08:12:15.796Z,8.30
2022-10-20T08:18:22.428Z,8.60
2022-10-20T08:24:24.315Z,9.00
2022-10-20T08:30:26.215Z,9.10
2022-10-20T08:36:28.558Z,9.20
2022-10-20T08:42:39.987Z,9.30
2022-10-20T08:48:42.662Z,9.40
2022-10-20T08:54:44.704Z,9.70
2022-10-20T09:00:47.598Z,9.80
2022-10-20T09:06:57.114Z,10.10
2022-10-20T09:13:00.018Z,10.30
2022-10-20T09:19:02.158Z,10.70
2022-10-20T09:25:05.307Z,11.00
2022-10-20T09:31:37.344Z,11.30
2022-10-20T09:37:39.747Z,11.50
2022-10-20T09:43:52.162Z,11.30
2022-10-20T09:50:06.028Z,11.40
2022-10-20T09:56:07.947Z,11.50
2022-10-20T10:02:15.621Z,11.90
2022-10-20T10:08:18.764Z,12.10
2022-10-20T10:14:23.751Z,12.30
2022-10-20T10:20:34.239Z,12.70
2022-10-20T10:26:51.945Z,13.00
2022-10-20T10:32:54.554Z,13.30
2022-10-20T10:38:56.886Z,13.80
2022-10-20T10:45:08.507Z,13.90
2022-10-20T10:51:23.588Z,13.80
2022-10-20T10:58:08.195Z,14.10
2022-10-20T11:04:34.365Z,13.80
2022-10-20T11:10:48.456Z,13.70
2022-10-20T11:17:25.265Z,14.10
2022-10-20T11:23:48.360Z,14.30
2022-10-20T11:29:58.029Z,14.20
2022-10-20T11:36:16.068Z,14.20
2022-10-20T11:42:44.628Z,14.70
2022-10-20T11:48:51.799Z,14.80
2022-10-20T11:55:58.003Z,15.10
2022-10-20T12:02:14.842Z,15.30
2022-10-20T12:08:43.594Z,15.40
2022-10-20T12:14:56.493Z,15.60
2022-10-20T12:21:05.415Z,15.60
2022-10-20T12:27:07.273Z,15.30
2022-10-20T12:33:19.941Z,15.10
2022-10-20T12:39:24.814Z,14.90
2022-10-20T12:45:41.865Z,14.90
2022-10-20T12:51:53.370Z,14.90
2022-10-20T12:58:17.093Z,14.80
2022-10-20T13:04:57.783Z,14.70
2022-10-20T13:11:43.158Z,14.60
2022-10-20T13:17:58.735Z,14.50
2022-10-20T13:24:00.538Z,14.50
2022-10-20T13:30:07.581Z,14.50
2022-10-20T13:36:14.427Z,14.30
2022-10-20T13:42:41.388Z,14.20
2022-10-20T13:49:02.035Z,14.30
2022-10-20T13:55:06.565Z,14.10
2022-10-20T14:01:24.381Z,14.00
2022-10-20T14:07:34.778Z,13.90
2022-10-20T14:13:36.906Z,13.70
2022-10-20T14:19:39.687Z,13.60
2022-10-20T14:25:44.986Z,13.50
2022-10-20T14:31:48.526Z,13.40
2022-10-20T14:38:18.123Z,13.30
2022-10-20T14:44:31.002Z,13.30
2022-10-20T14:50:40.778Z,13.30
2022-10-20T14:56:51.617Z,13.20
2022-10-20T15:02:57.104Z,13.20
2022-10-20T15:09:00.181Z,13.10
2022-10-20T15:15:11.176Z,13.10
2022-10-20T15:21:13.602Z,13.10
2022-10-20T15:27:17.016Z,13.00
2022-10-20T15:33:18.890Z,13.00
2022-10-20T15:39:21.479Z,12.90
2022-10-20T15:45:34.372Z,12.90
2022-10-20T15:51:40.005Z,12.90
2022-10-20T15:57:41.862Z,12.80
2022-10-20T16:03:44.562Z,12.80
2022-10-20T16:09:46.372Z,12.90
2022-10-20T16:15:48.208Z,12.80
2022-10-20T16:21:50.050Z,12.70
2022-10-20T16:27:51.950Z,12.60
2022-10-20T16:33:53.807Z,12.50
2022-10-20T16:39:55.672Z,12.50
2022-10-20T16:45:57.975Z,12.50
2022-10-20T16:52:01.589Z,12.40
2022-10-20T16:58:03.644Z,12.30
2022-10-20T17:04:05.604Z,12.20
2022-10-20T17:10:08.337Z,12.10
2022-10-20T17:16:16.278Z,12.00
2022-10-20T17:22:18.063Z,12.00
2022-10-20T17:28:20.553Z,12.00
2022-10-20T17:34:22.425Z,12.00
2022-10-20T17:40:24.271Z,11.90
2022-10-20T17:46:26.229Z,11.90
2022-10-20T17:52:29.963Z,11.90
2022-10-20T17:58:33.695Z,11.80
2022-10-20T18:04:35.942Z,11.70
2022-10-20T18:10:44.193Z,11.70
2022-10-20T18:16:47.011Z,11.60
2022-10-20T18:22:48.960Z,11.50
2022-10-20T18:28:51.292Z,11.50
2022-10-20T18:34:53.864Z,11.50
2022-10-20T18:40:55.734Z,11.40
2022-10-20T18:46:58.370Z,11.50
2022-10-20T18:53:00.263Z,11.50
2022-10-20T18:59:07.401Z,11.50
2022-10-20T19:05:09.698Z,11.50
2022-10-20T19:11:13.586Z,11.40
2022-10-20T19:17:15.415Z,11.40
2022-10-20T19:23:17.281Z,11.30
2022-10-20T19:29:19.844Z,11.30
2022-10-20T19:35:22.094Z,11.30
2022-10-20T19:41:24.361Z,11.30
2022-10-20T19:47:27.785Z,11.30
2022-10-20T19:53:30.511Z,11.20
2022-10-20T19:59:34.416Z,11.20
2022-10-20T20:05:36.794Z,11.20
2022-10-20T20:11:39.234Z,11.20
2022-10-20T20:17:42.347Z,11.20
2022-10-20T20:24:00.772Z,11.20
2022-10-20T20:30:04.296Z,11.30
2022-10-20T20:36:08.392Z,11.30
2022-10-20T20:42:10.224Z,11.30
2022-10-20T20:48:12.111Z,11.30
2022-10-20T20:54:14.005Z,11.40
2022-10-20T21:00:16.131Z,11.40
2022-10-20T21:06:18.517Z,11.60
2022-10-20T21:12:20.704Z,11.60
2022-10-20T21:18:22.543Z,11.70
2022-10-20T21:24:26.332Z,11.70
2022-10-20T21:30:28.229Z,11.70
2022-10-20T21:36:34.639Z,11.70
2022-10-20T21:42:36.899Z,11.70
2022-10-20T21:48:39.290Z,11.80
2022-10-20T21:54:41.165Z,11.90
2022-10-20T22:00:43.043Z,11.90
2022-10-20T22:06:44.878Z,11.90
2022-10-20T22:12:46.733Z,11.80
2022-10-20T22:18:48.694Z,11.70
2022-10-20T22:24:50.511Z,11.60
2022-10-20T22:30:52.406Z,11.60
2022-10-20T22:36:54.295Z,11.50
2022-10-20T22:42:56.181Z,11.40
2022-10-20T22:55:00.890Z,11.60
2022-10-20T23:01:08.030Z,11.50
2022-10-20T23:07:09.926Z,11.40
2022-10-20T23:13:11.764Z,11.40
2022-10-20T23:19:13.605Z,11.30
2022-10-20T23:25:15.566Z,11.40
2022-10-20T23:31:21.890Z,11.40
2022-10-20T23:37:23.843Z,11.30
2022-10-20T23:43:25.957Z,11.20
2022-10-20T23:49:27.986Z,11.20
2022-10-20T23:55:29.806Z,11.20
